Time;durP1;ratioP1;P1;durP2;ratioP2;P2;SDS_P1;SDS_P2;PMS_P1;PMS_P2;Temp;Humidity;BMP_temperature;BMP_pressure;BME280_temperature;BME280_humidity;BME280_pressure;Samples;Min_cycle;Max_cycle;Signal;HPM_P1;HPM_P2
2022/11/22 00:01:32;;;;;;;17.55;11.80;;;;;;;7.55;94.55;96156.72;4182805;28;20291;-86
2022/11/22 00:03:35;;;;;;;15.85;11.07;;;;;;;7.53;95.53;96156.00;4195836;28;20267;-87
2022/11/22 00:05:40;;;;;;;12.48;9.23;;;;;;;7.51;95.97;96168.28;4172759;28;20639;-87
2022/11/22 00:07:43;;;;;;;12.63;9.48;;;;;;;7.49;96.19;96170.22;4184427;28;20225;-87
2022/11/22 00:09:46;;;;;;;11.15;8.93;;;;;;;7.48;96.29;96173.75;4177260;28;20260;-86
2022/11/22 00:11:49;;;;;;;12.77;8.70;;;;;;;7.48;96.02;96177.16;4177669;28;20655;-87
2022/11/22 00:13:52;;;;;;;12.50;8.70;;;;;;;7.47;95.84;96171.28;4191433;28;20224;-87
2022/11/22 00:15:59;;;;;;;11.38;8.85;;;;;;;7.46;96.76;96160.09;4182161;28;20215;-87
2022/11/22 00:18:02;;;;;;;10.65;9.02;;;;;;;7.45;95.22;96158.47;4183863;28;20222;-86
2022/11/22 00:20:07;;;;;;;11.63;8.57;;;;;;;7.46;95.33;96149.72;4189142;28;20263;-87
2022/11/22 00:22:11;;;;;;;11.07;8.57;;;;;;;7.43;95.84;96143.97;4198168;28;20215;-86
2022/11/22 00:24:15;;;;;;;14.77;9.00;;;;;;;7.40;96.62;96136.50;4179671;28;20220;-87
2022/11/22 00:26:18;;;;;;;10.65;8.52;;;;;;;7.38;96.73;96140.97;4180924;28;20248;-87
2022/11/22 00:28:21;;;;;;;11.00;8.57;;;;;;;7.40;96.58;96136.50;4182421;28;20209;-87
2022/11/22 00:30:24;;;;;;;11.20;8.70;;;;;;;7.41;96.64;96136.31;4178233;28;20755;-87
2022/11/22 00:32:27;;;;;;;13.35;9.23;;;;;;;7.44;97.78;96138.66;4175828;28;20212;-86
2022/11/22 00:34:30;;;;;;;8.82;7.53;;;;;;;7.45;97.81;96142.91;4195405;28;20213;-87
2022/11/22 00:36:33;;;;;;;13.05;8.75;;;;;;;7.45;96.91;96142.91;4188527;28;20276;-87
2022/11/22 00:38:37;;;;;;;14.10;7.90;;;;;;;7.44;96.85;96124.88;4192865;28;20200;-87
2022/11/22 00:40:40;;;;;;;9.15;5.70;;;;;;;7.44;97.11;96119.69;4176562;28;20680;-87
2022/11/22 00:42:44;;;;;;;8.25;5.70;;;;;;;7.48;97.74;96134.03;4182518;28;20201;-87
2022/11/22 00:44:47;;;;;;;7.70;5.85;;;;;;;7.49;98.24;96133.91;4181565;28;20260;-87
2022/11/22 00:46:49;;;;;;;5.50;4.03;;;;;;;7.51;97.21;96137.19;4183578;28;20204;-87
2022/11/22 00:48:52;;;;;;;6.30;3.97;;;;;;;7.52;96.92;96131.03;4178059;28;20213;-87
2022/11/22 00:50:56;;;;;;;4.85;3.67;;;;;;;7.54;97.39;96131.72;4193715;28;20217;-86
2022/11/22 00:52:59;;;;;;;4.65;3.65;;;;;;;7.58;97.82;96140.88;4191807;28;20311;-87
2022/11/22 00:55:04;;;;;;;11.77;7.50;;;;;;;7.59;97.33;96145.09;4180081;28;20198;-87
2022/11/22 00:57:07;;;;;;;11.90;9.30;;;;;;;7.57;97.02;96141.81;4179942;28;20210;-86
2022/11/22 00:59:11;;;;;;;11.25;9.00;;;;;;;7.52;97.41;96149.19;4175217;28;20229;-87
2022/11/22 01:01:14;;;;;;;11.55;9.05;;;;;;;7.50;97.81;96153.69;4191998;28;20719;-86
2022/11/22 01:03:17;;;;;;;12.70;8.80;;;;;;;7.48;98.22;96159.00;4195645;28;20712;-87
2022/11/22 01:05:20;;;;;;;14.90;7.50;;;;;;;7.48;98.34;96145.22;4178494;28;21224;-87
2022/11/22 01:07:23;;;;;;;13.10;9.48;;;;;;;7.48;98.24;96158.19;4194077;28;20203;-86
2022/11/22 01:09:26;;;;;;;11.45;8.85;;;;;;;7.45;97.07;96155.88;4179585;28;20224;-86
2022/11/22 01:11:31;;;;;;;15.13;7.90;;;;;;;7.41;97.11;96162.25;4189068;28;20225;-86
2022/11/22 01:13:34;;;;;;;10.13;7.57;;;;;;;7.37;96.63;96166.09;4181647;28;20209;-87
2022/11/22 01:15:37;;;;;;;10.25;7.50;;;;;;;7.37;97.48;96165.28;4189089;28;20209;-87
2022/11/22 01:17:43;;;;;;;12.35;7.90;;;;;;;7.38;98.15;96167.75;4187184;28;20193;-87
2022/11/22 01:19:46;;;;;;;9.02;7.50;;;;;;;7.40;98.75;96177.97;4196138;28;20257;-87
2022/11/22 01:21:49;;;;;;;9.70;7.72;;;;;;;7.41;98.41;96174.41;4195519;28;20208;-87
2022/11/22 01:23:52;;;;;;;11.65;8.55;;;;;;;7.41;98.30;96185.59;4190190;28;20256;-86
2022/11/22 01:25:57;;;;;;;10.93;8.30;;;;;;;7.41;98.53;96177.81;4199007;28;20683;-87
2022/11/22 01:28:01;;;;;;;8.10;7.10;;;;;;;7.43;98.22;96181.13;4182445;28;20208;-86
2022/11/22 01:30:05;;;;;;;14.20;9.30;;;;;;;7.45;97.64;96179.19;4182386;28;20209;-87
2022/11/22 01:32:08;;;;;;;10.85;8.77;;;;;;;7.46;99.39;96180.84;4200202;28;20198;-86
2022/11/22 01:34:12;;;;;;;11.07;8.20;;;;;;;7.46;97.68;96175.66;4197411;28;20220;-87
2022/11/22 01:36:15;;;;;;;11.63;9.15;;;;;;;7.46;97.59;96178.25;4189135;28;20210;-87
2022/11/22 01:38:18;;;;;;;13.45;8.60;;;;;;;7.44;98.55;96182.72;4185408;28;20240;-86
2022/11/22 01:40:21;;;;;;;11.80;7.70;;;;;;;7.45;98.69;96186.97;4197163;28;20207;-87
2022/11/22 01:42:24;;;;;;;9.65;7.40;;;;;;;7.47;99.27;96192.84;4183249;28;20672;-87
2022/11/22 01:44:30;;;;;;;10.55;8.00;;;;;;;7.47;99.44;96192.84;4196086;28;20240;-87
2022/11/22 01:46:34;;;;;;;13.68;7.97;;;;;;;7.48;98.53;96204.88;4187063;28;20610;-86
2022/11/22 01:48:49;;;;;;;11.10;7.85;;;;;;;7.48;97.91;96207.47;4184754;28;20242;-87
2022/11/22 01:50:56;;;;;;;8.70;7.80;;;;;;;7.49;99.45;96202.16;4198802;28;20698;-87
2022/11/22 01:53:03;;;;;;;11.35;8.20;;;;;;;7.51;99.77;96202.81;4182306;28;20292;-86
2022/11/22 01:55:09;;;;;;;11.75;7.90;;;;;;;7.52;99.25;96196.69;4180481;28;20198;-86
2022/11/22 01:57:15;;;;;;;10.20;8.18;;;;;;;7.53;99.70;96197.50;4185329;28;20731;-87
2022/11/22 01:59:22;;;;;;;8.25;6.95;;;;;;;7.53;99.38;96194.91;4184359;28;20303;-86
2022/11/22 02:01:27;;;;;;;8.95;7.35;;;;;;;7.52;98.67;96191.50;4179322;28;20727;-86
2022/11/22 02:03:32;;;;;;;11.75;7.43;;;;;;;7.54;98.66;96199.16;4184328;28;20621;-87
2022/11/22 02:05:35;;;;;;;12.70;7.57;;;;;;;7.54;98.74;96196.56;4196382;28;20223;-87
2022/11/22 02:07:43;;;;;;;9.40;7.20;;;;;;;7.54;98.19;96201.75;4195831;28;21834;-87
2022/11/22 02:09:48;;;;;;;9.20;7.25;;;;;;;7.54;98.65;96194.78;4181060;28;20220;-86
2022/11/22 02:11:52;;;;;;;11.13;7.03;;;;;;;7.55;99.46;96200.81;4177866;28;20221;-87
2022/11/22 02:13:55;;;;;;;7.80;6.90;;;;;;;7.56;99.42;96192.88;4179196;28;20582;-87
2022/11/22 02:15:59;;;;;;;9.00;6.70;;;;;;;7.57;98.85;96193.69;4182634;28;20208;-86
2022/11/22 02:18:03;;;;;;;9.50;7.00;;;;;;;7.55;97.71;96191.25;4180325;28;20666;-87
2022/11/22 02:20:08;;;;;;;7.93;6.55;;;;;;;7.57;99.55;96201.47;4199246;28;20689;-87
2022/11/22 02:22:21;;;;;;;8.40;6.40;;;;;;;7.59;99.09;96207.34;4183980;28;20641;-86
2022/11/22 02:24:27;;;;;;;8.98;6.97;;;;;;;7.60;98.49;96204.63;4176487;28;20220;-86
2022/11/22 02:26:31;;;;;;;9.98;7.28;;;;;;;7.62;99.19;96212.25;4186026;28;20689;-86
2022/11/22 02:28:36;;;;;;;8.32;7.30;;;;;;;7.62;98.35;96209.69;4181289;28;20224;-87
2022/11/22 02:30:41;;;;;;;13.20;7.93;;;;;;;7.61;99.37;96216.66;4198946;28;20205;-87
2022/11/22 02:32:44;;;;;;;10.45;7.85;;;;;;;7.61;99.49;96215.84;4196520;28;20310;-87
2022/11/22 02:34:49;;;;;;;9.60;7.20;;;;;;;7.61;98.57;96208.06;4180666;28;20214;-87
2022/11/22 02:36:54;;;;;;;9.25;7.75;;;;;;;7.58;99.25;96214.31;4184933;28;20201;-86
2022/11/22 02:38:57;;;;;;;8.90;7.22;;;;;;;7.59;98.49;96209.94;4182294;28;20255;-87
2022/11/22 02:41:03;;;;;;;10.82;8.18;;;;;;;7.60;99.70;96214.19;4178983;28;20209;-86
2022/11/22 02:43:10;;;;;;;9.73;8.48;;;;;;;7.59;99.89;96218.56;4194511;28;20212;-86
2022/11/22 02:45:13;;;;;;;9.40;7.70;;;;;;;7.57;98.91;96230.81;4179087;28;20227;-86
2022/11/22 02:47:16;;;;;;;8.00;7.10;;;;;;;7.54;98.78;96223.31;4189205;28;20197;-87
2022/11/22 02:49:21;;;;;;;9.73;6.60;;;;;;;7.55;98.44;96218.97;4213325;28;20200;-87
2022/11/22 02:51:25;;;;;;;10.48;7.50;;;;;;;7.54;97.94;96219.91;4195753;28;20712;-87
2022/11/22 02:53:30;;;;;;;10.73;6.68;;;;;;;7.56;99.36;96228.34;4195724;28;20826;-87
2022/11/22 02:55:33;;;;;;;10.18;6.53;;;;;;;7.57;98.46;96219.63;4193424;28;20607;-87
2022/11/22 02:57:36;;;;;;;10.60;7.32;;;;;;;7.55;98.78;96216.38;4184946;28;20301;-86
2022/11/22 02:59:40;;;;;;;11.57;7.82;;;;;;;7.55;99.48;96226.75;4204101;28;20243;-87
2022/11/22 03:01:45;;;;;;;8.32;6.70;;;;;;;7.53;98.87;96229.47;4188230;28;20200;-87
2022/11/22 03:03:48;;;;;;;11.25;7.00;;;;;;;7.52;99.89;96221.81;4203305;28;20783;-87
2022/11/22 03:05:51;;;;;;;9.60;6.70;;;;;;;7.52;99.38;96224.41;4185995;28;20253;-87
2022/11/22 03:07:54;;;;;;;7.72;7.03;;;;;;;7.52;99.71;96227.00;4200365;28;20215;-87
2022/11/22 03:09:57;;;;;;;10.52;6.90;;;;;;;7.53;99.58;96223.44;4185108;28;20192;-87
2022/11/22 03:12:00;;;;;;;9.57;7.72;;;;;;;7.52;99.64;96222.63;4184053;28;20217;-87
2022/11/22 03:14:03;;;;;;;9.30;6.75;;;;;;;7.50;99.42;96227.13;4184667;28;20300;-86
2022/11/22 03:16:08;;;;;;;13.43;7.05;;;;;;;7.50;99.28;96234.06;4222732;28;20199;-87
2022/11/22 03:18:11;;;;;;;11.38;7.72;;;;;;;7.49;98.33;96233.25;4193491;28;20236;-87
2022/11/22 03:20:14;;;;;;;7.95;6.82;;;;;;;7.48;98.32;96240.38;4191442;28;20632;-87
2022/11/22 03:22:17;;;;;;;9.70;7.60;;;;;;;7.46;98.51;96240.50;4201442;28;20562;-87
2022/11/22 03:24:21;;;;;;;10.13;7.80;;;;;;;7.46;99.20;96243.09;4202054;28;20213;-87
2022/11/22 03:26:24;;;;;;;10.60;6.75;;;;;;;7.46;99.02;96245.69;4190415;28;20237;-87
2022/11/22 03:28:27;;;;;;;10.13;6.68;;;;;;;7.48;99.77;96240.38;4201132;28;20262;-87
2022/11/22 03:30:30;;;;;;;10.48;7.65;;;;;;;7.47;98.82;96244.72;4198598;28;20207;-87
2022/11/22 03:32:34;;;;;;;7.50;6.38;;;;;;;7.45;99.17;96251.81;4191284;28;20280;-87
2022/11/22 03:34:37;;;;;;;8.40;6.72;;;;;;;7.46;99.31;96252.63;4186170;28;20231;-87
2022/11/22 03:36:40;;;;;;;10.27;6.85;;;;;;;7.43;98.45;96248.53;4183369;28;20205;-87
2022/11/22 03:38:43;;;;;;;9.60;6.63;;;;;;;7.43;97.86;96248.53;4182668;28;20211;-88
2022/11/22 03:40:46;;;;;;;12.05;6.90;;;;;;;7.40;97.64;96237.63;4201817;28;20250;-87
2022/11/22 03:42:49;;;;;;;9.95;6.97;;;;;;;7.38;97.42;96247.28;4200107;28;20201;-87
2022/11/22 03:44:53;;;;;;;7.47;6.25;;;;;;;7.36;97.34;96251.78;4199561;28;20300;-87
2022/11/22 03:46:56;;;;;;;8.70;6.43;;;;;;;7.35;97.35;96256.16;4183609;28;22328;-87
2022/11/22 03:49:00;;;;;;;8.15;6.22;;;;;;;7.35;97.30;96261.34;4206008;28;20237;-86
2022/11/22 03:51:04;;;;;;;9.90;6.60;;;;;;;7.34;97.73;96262.28;4184683;28;20537;-87
2022/11/22 03:53:07;;;;;;;7.97;5.93;;;;;;;7.32;97.17;96256.41;4186651;28;20200;-87
2022/11/22 03:55:10;;;;;;;8.75;6.28;;;;;;;7.32;98.13;96256.41;4188438;28;20660;-87
2022/11/22 03:57:15;;;;;;;7.90;6.70;;;;;;;7.32;97.52;96256.41;4184187;28;20257;-87
2022/11/22 03:59:18;;;;;;;9.00;5.97;;;;;;;7.32;97.19;96263.34;4197609;28;20270;-87
2022/11/22 04:01:21;;;;;;;8.70;5.72;;;;;;;7.31;97.96;96265.13;4198898;28;20205;-86
2022/11/22 04:03:25;;;;;;;6.32;5.68;;;;;;;7.28;97.55;96257.63;4185145;28;20725;-87
2022/11/22 04:05:30;;;;;;;9.15;6.55;;;;;;;7.27;97.18;96253.38;4187708;28;20225;-87
2022/11/22 04:07:33;;;;;;;12.98;8.25;;;;;;;7.23;97.14;96254.59;4187461;28;20583;-87
2022/11/22 04:09:36;;;;;;;9.23;7.65;;;;;;;7.23;98.48;96269.31;4199913;28;20276;-87
2022/11/22 04:11:39;;;;;;;9.40;7.03;;;;;;;7.23;98.44;96261.53;4184402;28;20239;-87
2022/11/22 04:16:03;;;;;;;8.85;6.72;;;;;;;7.24;97.30;96258.81;4191012;28;20670;-86
2022/11/22 04:18:09;;;;;;;10.02;7.95;;;;;;;7.23;97.53;96249.41;4204066;28;20210;-87
2022/11/22 04:22:37;;;;;;;10.27;6.78;;;;;;;7.26;98.49;96262.13;4201428;28;20682;-87
2022/11/22 04:27:06;;;;;;;9.73;7.00;;;;;;;7.29;98.94;96255.81;4178062;28;20224;-87
2022/11/22 04:29:09;;;;;;;9.73;7.25;;;;;;;7.30;99.57;96268.66;4200349;28;20196;-87
2022/11/22 04:33:33;;;;;;;9.23;5.78;;;;;;;7.33;99.13;96267.59;4206884;28;20250;-87
2022/11/22 04:35:36;;;;;;;11.23;6.57;;;;;;;7.34;99.09;96274.44;4198215;28;20247;-87
2022/11/22 04:37:40;;;;;;;9.90;6.43;;;;;;;7.32;98.85;96273.72;4202105;28;20230;-87
2022/11/22 04:39:43;;;;;;;7.65;6.55;;;;;;;7.25;98.87;96270.84;4199086;28;20240;-87
2022/11/22 04:41:46;;;;;;;11.20;6.20;;;;;;;7.24;97.89;96271.78;4184583;28;20680;-87
2022/11/22 04:46:10;;;;;;;9.68;5.85;;;;;;;7.21;97.77;96272.03;4202890;28;20239;-87
2022/11/22 04:48:13;;;;;;;8.30;5.60;;;;;;;7.20;98.75;96270.41;4190257;28;20208;-87
2022/11/22 04:54:55;;;;;;;5.88;4.60;;;;;;;7.20;98.69;96270.41;4208320;28;20282;-87
2022/11/22 04:56:58;;;;;;;7.43;5.38;;;;;;;7.21;98.75;96273.81;4205359;28;20323;-87
2022/11/22 04:59:01;;;;;;;7.10;5.70;;;;;;;7.20;97.53;96274.75;4188943;28;20706;-87
2022/11/22 05:01:04;;;;;;;7.30;5.70;;;;;;;7.11;98.06;96276.38;4206442;28;20214;-86
2022/11/22 05:03:08;;;;;;;8.48;6.63;;;;;;;7.05;97.82;96273.44;4188020;28;20202;-87
2022/11/22 05:05:11;;;;;;;8.27;6.18;;;;;;;7.00;98.51;96269.59;4188160;28;20198;-87
2022/11/22 05:07:14;;;;;;;10.52;5.47;;;;;;;6.96;97.63;96260.44;4193358;28;20224;-87
2022/11/22 05:09:17;;;;;;;7.05;5.18;;;;;;;6.91;96.78;96270.38;4200958;28;20677;-86
2022/11/22 05:11:21;;;;;;;6.95;5.53;;;;;;;6.88;96.73;96262.84;4209032;28;20237;-87
2022/11/22 05:13:31;;;;;;;6.30;5.28;;;;;;;6.85;96.43;96273.47;4209319;28;20210;-86
2022/11/22 05:15:34;;;;;;;7.45;5.85;;;;;;;6.86;96.56;96267.34;4192580;28;20253;-87
2022/11/22 05:17:37;;;;;;;7.65;5.78;;;;;;;6.85;97.34;96269.09;4183133;28;20662;-87
2022/11/22 05:19:41;;;;;;;7.55;5.55;;;;;;;6.86;96.89;96277.72;4188926;28;20193;-87
2022/11/22 05:21:50;;;;;;;6.03;5.43;;;;;;;6.85;98.22;96281.25;4193317;28;20569;-87
2022/11/22 05:23:56;;;;;;;5.32;4.45;;;;;;;6.86;97.64;96278.53;4191684;28;20203;-87
2022/11/22 05:25:59;;;;;;;6.97;5.28;;;;;;;6.87;97.58;96281.94;4190380;28;20256;-87
2022/11/22 05:28:04;;;;;;;6.20;5.03;;;;;;;6.87;97.82;96279.34;4190310;28;20205;-87
2022/11/22 05:30:08;;;;;;;6.50;5.18;;;;;;;6.87;98.39;96294.88;4191214;28;20651;-87
2022/11/22 05:32:11;;;;;;;5.45;4.60;;;;;;;6.85;97.36;96297.59;4209642;28;20210;-87
2022/11/22 05:34:14;;;;;;;5.88;4.53;;;;;;;6.84;98.09;96297.72;4201623;28;20207;-87
2022/11/22 05:36:17;;;;;;;5.70;4.38;;;;;;;6.85;97.63;96289.81;4191233;28;20241;-87
2022/11/22 05:38:20;;;;;;;4.93;4.13;;;;;;;6.90;98.29;96297.22;4204539;28;20256;-87
2022/11/22 05:40:23;;;;;;;5.57;4.18;;;;;;;6.91;98.53;96297.09;4194986;28;20203;-87
2022/11/22 05:42:26;;;;;;;5.43;4.88;;;;;;;6.94;98.83;96298.63;4206966;28;20207;-87
2022/11/22 05:44:31;;;;;;;7.28;4.70;;;;;;;6.95;97.83;96298.50;4201534;28;20760;-87
2022/11/22 05:46:34;;;;;;;10.07;5.30;;;;;;;6.93;97.64;96310.75;4206309;28;20681;-87
2022/11/22 05:48:38;;;;;;;11.93;5.45;;;;;;;6.89;97.74;96298.19;4203796;28;20216;-87
2022/11/22 05:50:41;;;;;;;8.23;4.75;;;;;;;6.86;96.58;96303.63;4206376;28;20210;-87
2022/11/22 05:52:44;;;;;;;8.43;5.78;;;;;;;6.85;97.01;96309.72;4201875;28;20208;-86
2022/11/22 05:54:47;;;;;;;8.95;4.50;;;;;;;6.85;97.10;96312.31;4201601;28;20729;-87
2022/11/22 05:56:50;;;;;;;9.23;4.80;;;;;;;6.84;97.01;96310.69;4188351;28;20220;-86
2022/11/22 05:58:54;;;;;;;6.78;4.55;;;;;;;6.85;96.63;96317.50;4205109;28;20299;-86
2022/11/22 06:01:02;;;;;;;5.85;3.55;;;;;;;6.88;98.02;96309.47;4187091;28;20289;-87
2022/11/22 06:03:05;;;;;;;10.27;6.53;;;;;;;6.91;97.59;96309.22;4200640;28;20205;-87
2022/11/22 06:05:09;;;;;;;9.15;6.40;;;;;;;6.91;98.48;96317.81;4184696;28;20656;-86
2022/11/22 06:07:12;;;;;;;5.40;4.10;;;;;;;6.92;98.32;96313.47;4187795;28;20213;-86
2022/11/22 06:09:15;;;;;;;7.03;4.40;;;;;;;6.95;99.04;96319.22;4194152;28;20292;-86
2022/11/22 06:11:20;;;;;;;8.20;4.15;;;;;;;6.96;98.01;96320.03;4192090;28;20240;-86
2022/11/22 06:13:23;;;;;;;8.10;4.00;;;;;;;6.94;97.68;96322.75;4191886;28;20748;-86
2022/11/22 06:15:30;;;;;;;11.00;4.43;;;;;;;6.95;97.24;96328.78;4191804;28;20227;-87
2022/11/22 06:17:45;;;;;;;6.70;4.82;;;;;;;6.93;97.40;96334.06;4201615;28;20194;-87
2022/11/22 06:19:49;;;;;;;12.32;5.20;;;;;;;6.93;97.96;96336.66;4202989;28;20598;-87
2022/11/22 06:21:52;;;;;;;10.25;7.75;;;;;;;6.95;97.14;96342.53;4204718;28;20366;-87
2022/11/22 06:23:55;;;;;;;13.73;8.73;;;;;;;6.91;96.12;96335.16;4186979;28;20259;-87
2022/11/22 06:25:59;;;;;;;11.38;7.18;;;;;;;6.84;96.88;96352.97;4188690;28;20675;-87
2022/11/22 06:28:02;;;;;;;7.38;5.65;;;;;;;6.83;95.58;96347.91;4199136;28;20224;-87
2022/11/22 06:30:06;;;;;;;5.82;4.55;;;;;;;6.77;95.60;96343.22;4203499;28;20236;-87
2022/11/22 06:32:09;;;;;;;7.18;5.05;;;;;;;6.71;94.81;96341.94;4194736;28;20208;-86
2022/11/22 06:34:14;;;;;;;6.35;4.50;;;;;;;6.70;95.90;96340.28;4186196;28;20205;-87
2022/11/22 06:36:18;;;;;;;5.53;4.07;;;;;;;6.69;95.13;96343.84;4191068;28;20208;-87
2022/11/22 06:38:21;;;;;;;4.65;4.00;;;;;;;6.73;95.93;96345.22;4204276;28;20217;-87
2022/11/22 06:40:24;;;;;;;5.75;3.92;;;;;;;6.74;96.19;96346.88;4189002;28;20212;-86
2022/11/22 06:42:27;;;;;;;10.68;5.22;;;;;;;6.73;96.72;96347.81;4200072;28;20204;-86
2022/11/22 06:44:30;;;;;;;7.30;4.20;;;;;;;6.74;97.13;96357.25;4203782;28;20218;-86
2022/11/22 06:46:34;;;;;;;8.20;4.55;;;;;;;6.75;97.09;96358.88;4202026;28;20570;-86
2022/11/22 06:48:38;;;;;;;6.40;4.55;;;;;;;6.78;97.42;96358.66;4205372;28;20209;-85
2022/11/22 06:50:42;;;;;;;9.25;7.70;;;;;;;6.73;97.22;96365.13;4189756;28;20217;-84
2022/11/22 06:52:50;;;;;;;9.63;7.65;;;;;;;6.66;96.88;96364.81;4202829;28;20220;-84
2022/11/22 06:54:53;;;;;;;8.05;5.97;;;;;;;6.64;97.59;96377.03;4200372;28;20200;-84
2022/11/22 06:56:56;;;;;;;7.97;6.13;;;;;;;6.63;97.12;96380.59;4202513;28;20592;-85
2022/11/22 06:59:02;;;;;;;8.60;5.82;;;;;;;6.63;97.03;96379.75;4201490;28;20208;-85
2022/11/22 07:01:06;;;;;;;8.85;6.05;;;;;;;6.61;97.20;96385.09;4183535;28;20302;-85
2022/11/22 07:03:09;;;;;;;8.52;5.82;;;;;;;6.61;96.43;96387.69;4204019;28;20686;-84
2022/11/22 07:05:12;;;;;;;6.35;4.63;;;;;;;6.55;96.67;96395.09;4184317;28;20209;-84
2022/11/22 07:07:32;;;;;;;8.70;5.28;;;;;;;6.52;95.84;96403.09;4202265;28;20259;-84
2022/11/22 07:09:37;;;;;;;6.68;4.78;;;;;;;6.55;96.39;96405.44;4204187;28;20210;-84
2022/11/22 07:11:40;;;;;;;7.00;4.72;;;;;;;6.58;97.45;96412.97;4184567;28;20212;-85
2022/11/22 07:13:43;;;;;;;5.32;4.40;;;;;;;6.62;97.50;96430.72;4185973;28;20212;-84
2022/11/22 07:15:54;;;;;;;7.50;4.88;;;;;;;6.68;97.51;96440.59;4184512;28;21514;-85
2022/11/22 07:17:57;;;;;;;7.20;4.30;;;;;;;6.68;98.25;96439.78;4204047;28;20211;-85
2022/11/22 07:20:00;;;;;;;7.80;4.88;;;;;;;6.69;98.16;96442.25;4198026;28;20210;-85
2022/11/22 07:22:03;;;;;;;6.90;4.60;;;;;;;6.70;97.33;96443.88;4188503;28;20202;-85
2022/11/22 07:24:08;;;;;;;6.68;5.20;;;;;;;6.73;97.74;96448.00;4196896;28;20296;-85
2022/11/22 07:26:12;;;;;;;5.82;5.10;;;;;;;6.74;97.32;96444.50;4182637;28;20207;-84
2022/11/22 07:28:16;;;;;;;6.47;4.93;;;;;;;6.74;98.29;96449.66;4194821;28;20251;-85
2022/11/22 07:30:19;;;;;;;7.45;5.78;;;;;;;6.77;97.25;96452.03;4179612;28;20303;-85
2022/11/22 07:32:22;;;;;;;13.15;9.45;;;;;;;6.76;97.70;96452.94;4194254;28;20226;-86
2022/11/22 07:34:25;;;;;;;10.00;7.80;;;;;;;6.76;97.16;96453.75;4197402;28;20200;-85
2022/11/22 07:36:29;;;;;;;10.80;8.20;;;;;;;6.77;97.55;96463.19;4200917;28;20909;-84
2022/11/22 07:38:32;;;;;;;14.15;9.20;;;;;;;6.78;97.64;96464.00;4188186;28;20207;-84
2022/11/22 07:40:36;;;;;;;10.35;8.07;;;;;;;6.79;97.51;96466.47;4204040;28;20200;-84
2022/11/22 07:42:39;;;;;;;10.93;9.43;;;;;;;6.80;95.76;96459.53;4199819;28;20239;-84
2022/11/22 07:44:42;;;;;;;9.02;7.07;;;;;;;6.81;96.97;96468.94;4196602;28;20221;-83
2022/11/22 07:46:46;;;;;;;13.77;10.90;;;;;;;6.85;97.73;96470.34;4201733;28;20243;-83
2022/11/22 07:48:49;;;;;;;13.85;11.05;;;;;;;6.87;97.13;96471.88;4184934;28;20228;-84
2022/11/22 07:50:53;;;;;;;13.27;10.88;;;;;;;6.90;97.04;96471.66;4199790;28;20211;-84
2022/11/22 07:52:56;;;;;;;22.27;16.42;;;;;;;6.93;96.36;96471.41;4198857;28;20219;-83
2022/11/22 07:54:59;;;;;;;15.02;11.55;;;;;;;6.96;96.79;96480.69;4201630;28;20715;-83
2022/11/22 07:57:03;;;;;;;10.70;9.60;;;;;;;6.98;96.54;96484.00;4182311;28;20206;-83
2022/11/22 07:59:06;;;;;;;11.13;9.00;;;;;;;6.98;97.54;96474.44;4183802;28;20203;-83
2022/11/22 08:01:11;;;;;;;22.98;20.65;;;;;;;6.94;97.23;96485.97;4197595;28;20672;-84
2022/11/22 08:03:14;;;;;;;23.33;19.30;;;;;;;6.94;96.77;96490.34;4180698;28;20234;-84
2022/11/22 08:05:20;;;;;;;27.75;22.50;;;;;;;6.94;97.27;96496.34;4199923;28;20301;-84
2022/11/22 08:07:23;;;;;;;39.17;23.35;;;;;;;6.96;97.79;96496.22;4204166;28;20212;-84
2022/11/22 08:09:27;;;;;;;21.33;15.82;;;;;;;6.97;97.29;96490.91;4201212;28;20200;-84
2022/11/22 08:11:30;;;;;;;24.10;14.90;;;;;;;6.96;97.09;96489.28;4184386;28;20588;-84
2022/11/22 08:13:35;;;;;;;15.43;11.48;;;;;;;6.96;96.83;96486.69;4189477;28;20203;-84
2022/11/22 08:15:38;;;;;;;20.05;12.35;;;;;;;6.97;97.84;96480.56;4199404;28;20215;-84
2022/11/22 08:17:42;;;;;;;16.15;11.85;;;;;;;6.98;96.76;96481.41;4191649;28;20193;-84
2022/11/22 08:19:45;;;;;;;18.15;11.07;;;;;;;6.99;97.12;96486.47;4201667;28;20209;-84
2022/11/22 08:21:49;;;;;;;18.98;11.45;;;;;;;6.99;97.38;96481.28;4206286;28;20214;-85
2022/11/22 08:24:00;;;;;;;18.75;13.27;;;;;;;7.02;97.17;96487.97;4192483;28;20331;-85
2022/11/22 08:26:03;;;;;;;16.60;11.65;;;;;;;7.02;97.53;96487.97;4197681;28;20210;-85
2022/11/22 08:28:06;;;;;;;21.33;11.68;;;;;;;7.05;97.13;96491.13;4182757;28;20236;-85
2022/11/22 08:30:11;;;;;;;14.00;10.90;;;;;;;7.04;96.73;96489.50;4195401;28;20294;-85
2022/11/22 08:32:14;;;;;;;13.90;10.43;;;;;;;7.05;96.74;96488.53;4180447;28;20217;-86
2022/11/22 08:34:18;;;;;;;13.05;9.77;;;;;;;7.08;97.84;96496.06;4192170;28;20198;-85
2022/11/22 08:36:21;;;;;;;15.35;9.98;;;;;;;7.11;96.79;96491.47;4193433;28;20689;-85
2022/11/22 08:38:24;;;;;;;12.82;9.38;;;;;;;7.15;96.65;96492.84;4196765;28;20203;-85
2022/11/22 08:40:27;;;;;;;12.68;8.70;;;;;;;7.17;96.63;96496.16;4206638;28;20203;-86
2022/11/22 08:42:30;;;;;;;14.80;10.45;;;;;;;7.22;97.84;96493.22;4219025;28;20659;-85
2022/11/22 08:44:33;;;;;;;13.80;9.15;;;;;;;7.26;97.19;96490.25;4226172;28;20253;-86
2022/11/22 08:46:38;;;;;;;16.73;8.73;;;;;;;7.29;97.04;96487.41;4190411;28;20207;-86
2022/11/22 08:48:41;;;;;;;12.18;8.40;;;;;;;7.30;97.78;96491.63;4189257;28;20214;-85
2022/11/22 08:50:50;;;;;;;12.43;8.93;;;;;;;7.32;96.19;96494.94;4187064;28;20256;-86
2022/11/22 08:52:53;;;;;;;10.93;9.00;;;;;;;7.33;97.01;96487.97;4190999;28;20198;-86
2022/11/22 08:54:56;;;;;;;13.02;9.45;;;;;;;7.38;97.56;96494.44;4208938;28;20239;-86
2022/11/22 08:56:59;;;;;;;14.15;8.77;;;;;;;7.46;98.53;96486.00;4187798;28;24318;-85
2022/11/22 08:59:02;;;;;;;13.52;8.70;;;;;;;7.48;97.47;96477.97;4185273;28;20228;-85
2022/11/22 09:01:06;;;;;;;13.70;9.40;;;;;;;7.53;98.12;96478.44;4186637;28;20722;-85
2022/11/22 09:03:10;;;;;;;12.60;9.23;;;;;;;7.56;97.45;96478.19;4186295;28;20250;-86
2022/11/22 09:05:13;;;;;;;12.82;9.10;;;;;;;7.61;98.08;96483.00;4202741;28;20234;-86
2022/11/22 09:07:16;;;;;;;16.60;9.55;;;;;;;7.64;97.38;96477.56;4189896;28;20238;-86
2022/11/22 09:09:39;;;;;;;12.10;9.23;;;;;;;7.73;97.44;96474.22;4183690;28;20258;-86
2022/11/22 09:11:42;;;;;;;13.70;10.00;;;;;;;7.78;97.97;96472.84;4201863;28;21866;-85
2022/11/22 09:13:46;;;;;;;11.13;8.65;;;;;;;7.84;98.83;96479.31;4188940;28;20660;-86
2022/11/22 09:15:49;;;;;;;14.15;10.23;;;;;;;7.88;97.60;96473.75;4189342;28;20262;-86
2022/11/22 09:17:52;;;;;;;12.63;10.02;;;;;;;7.90;97.64;96471.84;4205905;28;20212;-85
2022/11/22 09:19:57;;;;;;;12.63;10.45;;;;;;;7.93;98.14;96471.56;4204120;28;20244;-85
2022/11/22 09:22:00;;;;;;;62.88;35.63;;;;;;;7.96;97.69;96471.31;4204117;28;20600;-85
2022/11/22 09:24:03;;;;;;;24.48;16.77;;;;;;;8.02;98.38;96479.41;4198632;28;20205;-85
2022/11/22 09:26:08;;;;;;;13.95;10.48;;;;;;;8.09;97.62;96485.75;4194175;28;20209;-86
2022/11/22 09:28:12;;;;;;;12.43;9.82;;;;;;;8.13;98.14;96484.56;4202347;28;20285;-85
2022/11/22 09:30:16;;;;;;;17.13;11.80;;;;;;;8.18;97.94;96485.00;4183043;28;20302;-85
2022/11/22 09:32:19;;;;;;;19.77;15.75;;;;;;;8.22;98.68;96490.75;4204532;28;20863;-85
2022/11/22 09:34:22;;;;;;;16.80;12.65;;;;;;;8.21;97.33;96492.53;4203616;28;20204;-87
2022/11/22 09:36:26;;;;;;;17.83;15.45;;;;;;;8.24;96.70;96500.06;4206766;28;20695;-86
2022/11/22 09:38:30;;;;;;;18.23;16.05;;;;;;;8.30;97.75;96504.75;4187545;28;20232;-88
2022/11/22 09:40:34;;;;;;;20.33;13.90;;;;;;;8.34;97.35;96513.09;4189779;28;20194;-88
2022/11/22 09:42:47;;;;;;;19.52;13.05;;;;;;;8.38;97.88;96511.88;4203299;28;20209;-88
2022/11/22 09:45:18;;;;;;;13.88;10.70;;;;;;;8.43;98.42;96510.50;4184533;28;20965;-88
2022/11/22 09:47:28;;;;;;;13.32;9.00;;;;;;;8.48;97.01;96526.56;4197785;28;20284;-89
2022/11/22 09:49:38;;;;;;;13.63;8.88;;;;;;;8.50;97.83;96528.06;4183722;28;20217;-88
2022/11/22 09:51:47;;;;;;;9.27;7.60;;;;;;;8.54;97.65;96521.66;4201413;28;20634;-88
2022/11/22 09:53:52;;;;;;;10.85;8.35;;;;;;;8.59;98.18;96523.84;4184177;28;20646;-88
2022/11/22 09:55:57;;;;;;;11.57;9.40;;;;;;;8.63;97.40;96517.44;4187691;28;20768;-87
2022/11/22 09:58:06;;;;;;;12.52;9.23;;;;;;;8.68;97.30;96529.09;4184977;28;20209;-88
2022/11/22 10:00:18;;;;;;;9.50;8.30;;;;;;;8.72;98.40;96532.22;4198498;28;20215;-88
2022/11/22 10:02:25;;;;;;;16.60;10.63;;;;;;;8.76;98.42;96537.03;4205216;28;20207;-87
2022/11/22 10:04:33;;;;;;;12.70;10.52;;;;;;;8.78;98.73;96539.50;4199617;28;20340;-88